This is the latest recevied weather packets stored in our database for station/object DK6GC-10. If no packets are shown the sender has not sent any weather packets the latest 10 day(s).
| Time | Temp. | Humidity | Pressure | Rain* | Wind** | Luminosity | Snow |
|---|---|---|---|---|---|---|---|
| 1777685418 | 10.56° C | 61% | 1022.8 hPa | - | - | - | - |
| 1777684518 | 11.11° C | 60% | 1022.9 hPa | - | - | - | - |
| 1777683618 | 11.11° C | 57% | 1022.8 hPa | - | - | - | - |
| 1777682718 | 11.67° C | 54% | 1022.8 hPa | - | - | - | - |
| 1777681817 | 12.22° C | 54% | 1022.8 hPa | - | - | - | - |
| 1777680917 | 13.89° C | 48% | 1022.8 hPa | - | - | - | - |
| 1777680021 | 13.33° C | 52% | 1022.8 hPa | - | - | - | - |
| 1777679121 | 14.44° C | 48% | 1022.8 hPa | - | - | - | - |
| 1777678221 | 15° C | 43% | 1022.9 hPa | - | - | - | - |
| 1777677320 | 15° C | 43% | 1022.8 hPa | - | - | - | - |
| 1777676420 | 16.67° C | 38% | 1022.8 hPa | - | - | - | - |
| 1777675520 | 17.78° C | 35% | 1022.6 hPa | - | - | - | - |
| 1777674620 | 17.78° C | 36% | 1022.7 hPa | - | - | - | - |
| 1777673720 | 17.78° C | 35% | 1022.8 hPa | - | - | - | - |
| 1777672819 | 17.78° C | 35% | 1022.8 hPa | - | - | - | - |
| 1777671919 | 17.22° C | 36% | 1022.7 hPa | - | - | - | - |
| 1777671019 | 17.22° C | 37% | 1022.8 hPa | - | - | - | - |
| 1777670119 | 16.67° C | 38% | 1022.8 hPa | - | - | - | - |
| 1777669219 | 17.78° C | 37% | 1022.7 hPa | - | - | - | - |
| 1777668319 | 17.78° C | 35% | 1022.7 hPa | - | - | - | - |
| 1777667418 | 18.33° C | 35% | 1022.7 hPa | - | - | - | - |
| 1777666518 | 17.78° C | 36% | 1022.7 hPa | - | - | - | - |
| 1777665618 | 17.78° C | 35% | 1022.6 hPa | - | - | - | - |
| 1777664718 | 15.56° C | 42% | 1022.6 hPa | - | - | - | - |
| 1777663818 | 15° C | 48% | 1022.5 hPa | - | - | - | - |
* Rain since midnight (hover to see other rain measurements)
** Current wind speed in m/s (hover to see current wind gust speed)